sensor_id;sensor_type;location;lat;lon;timestamp;P1;durP1;ratioP1;P2;durP2;ratioP2
11141;SDS011;5625;50.122;19.864;2024-03-08T00:00:55;23.90;;;18.70;;
11141;SDS011;5625;50.122;19.864;2024-03-08T00:03:23;24.47;;;18.93;;
11141;SDS011;5625;50.122;19.864;2024-03-08T00:05:52;22.93;;;17.90;;
11141;SDS011;5625;50.122;19.864;2024-03-08T00:08:20;25.07;;;18.97;;
11141;SDS011;5625;50.122;19.864;2024-03-08T00:10:48;23.20;;;17.97;;
11141;SDS011;5625;50.122;19.864;2024-03-08T00:13:18;26.20;;;18.63;;
11141;SDS011;5625;50.122;19.864;2024-03-08T00:15:46;23.60;;;18.53;;
11141;SDS011;5625;50.122;19.864;2024-03-08T00:18:14;23.40;;;18.23;;
11141;SDS011;5625;50.122;19.864;2024-03-08T00:20:43;23.93;;;17.93;;
11141;SDS011;5625;50.122;19.864;2024-03-08T00:23:11;23.07;;;18.40;;
11141;SDS011;5625;50.122;19.864;2024-03-08T00:25:42;24.73;;;18.87;;
11141;SDS011;5625;50.122;19.864;2024-03-08T00:28:10;22.93;;;17.53;;
11141;SDS011;5625;50.122;19.864;2024-03-08T00:30:42;25.63;;;19.03;;
11141;SDS011;5625;50.122;19.864;2024-03-08T00:33:11;22.47;;;17.37;;
11141;SDS011;5625;50.122;19.864;2024-03-08T00:35:40;19.90;;;16.43;;
11141;SDS011;5625;50.122;19.864;2024-03-08T00:38:10;22.77;;;17.50;;
11141;SDS011;5625;50.122;19.864;2024-03-08T00:40:41;21.17;;;16.40;;
11141;SDS011;5625;50.122;19.864;2024-03-08T00:43:09;24.87;;;17.53;;
11141;SDS011;5625;50.122;19.864;2024-03-08T00:45:37;19.60;;;16.33;;
11141;SDS011;5625;50.122;19.864;2024-03-08T00:48:10;20.47;;;16.57;;
11141;SDS011;5625;50.122;19.864;2024-03-08T00:50:38;20.47;;;15.60;;
11141;SDS011;5625;50.122;19.864;2024-03-08T00:53:06;21.40;;;16.63;;
11141;SDS011;5625;50.122;19.864;2024-03-08T00:55:45;22.30;;;16.57;;
11141;SDS011;5625;50.122;19.864;2024-03-08T00:58:14;18.63;;;15.70;;
11141;SDS011;5625;50.122;19.864;2024-03-08T01:00:43;20.40;;;15.87;;
11141;SDS011;5625;50.122;19.864;2024-03-08T01:03:20;23.83;;;15.90;;
11141;SDS011;5625;50.122;19.864;2024-03-08T01:05:51;20.67;;;15.93;;
11141;SDS011;5625;50.122;19.864;2024-03-08T01:08:22;20.93;;;16.47;;
11141;SDS011;5625;50.122;19.864;2024-03-08T01:10:50;22.07;;;16.87;;
11141;SDS011;5625;50.122;19.864;2024-03-08T01:13:23;21.67;;;17.17;;
11141;SDS011;5625;50.122;19.864;2024-03-08T01:15:52;21.87;;;17.53;;
11141;SDS011;5625;50.122;19.864;2024-03-08T01:18:25;21.00;;;16.57;;
11141;SDS011;5625;50.122;19.864;2024-03-08T01:20:56;24.73;;;17.07;;
11141;SDS011;5625;50.122;19.864;2024-03-08T01:23:24;21.00;;;17.17;;
11141;SDS011;5625;50.122;19.864;2024-03-08T01:25:52;21.53;;;16.77;;
11141;SDS011;5625;50.122;19.864;2024-03-08T01:28:25;18.80;;;16.03;;
11141;SDS011;5625;50.122;19.864;2024-03-08T01:30:54;23.93;;;17.23;;
11141;SDS011;5625;50.122;19.864;2024-03-08T01:33:23;22.17;;;17.87;;
11141;SDS011;5625;50.122;19.864;2024-03-08T01:35:54;20.67;;;16.87;;
11141;SDS011;5625;50.122;19.864;2024-03-08T01:38:23;21.23;;;17.63;;
11141;SDS011;5625;50.122;19.864;2024-03-08T01:40:51;20.57;;;16.47;;
11141;SDS011;5625;50.122;19.864;2024-03-08T01:43:20;20.93;;;17.63;;
11141;SDS011;5625;50.122;19.864;2024-03-08T01:45:53;21.57;;;17.30;;
11141;SDS011;5625;50.122;19.864;2024-03-08T01:48:22;23.17;;;18.50;;
11141;SDS011;5625;50.122;19.864;2024-03-08T01:50:52;22.20;;;17.83;;
11141;SDS011;5625;50.122;19.864;2024-03-08T01:53:22;22.20;;;18.00;;
11141;SDS011;5625;50.122;19.864;2024-03-08T01:55:51;24.50;;;18.37;;
11141;SDS011;5625;50.122;19.864;2024-03-08T01:58:23;22.40;;;18.63;;
11141;SDS011;5625;50.122;19.864;2024-03-08T02:00:54;22.83;;;17.50;;
11141;SDS011;5625;50.122;19.864;2024-03-08T02:03:25;23.67;;;18.37;;
11141;SDS011;5625;50.122;19.864;2024-03-08T02:05:54;23.20;;;18.07;;
11141;SDS011;5625;50.122;19.864;2024-03-08T02:08:22;23.30;;;17.83;;
11141;SDS011;5625;50.122;19.864;2024-03-08T02:10:50;22.63;;;18.47;;
11141;SDS011;5625;50.122;19.864;2024-03-08T02:13:18;22.10;;;17.77;;
11141;SDS011;5625;50.122;19.864;2024-03-08T02:15:50;25.37;;;18.47;;
11141;SDS011;5625;50.122;19.864;2024-03-08T02:18:18;23.83;;;17.87;;
11141;SDS011;5625;50.122;19.864;2024-03-08T02:20:48;23.27;;;18.20;;
11141;SDS011;5625;50.122;19.864;2024-03-08T02:23:17;23.20;;;16.80;;
11141;SDS011;5625;50.122;19.864;2024-03-08T02:25:46;20.90;;;17.10;;
11141;SDS011;5625;50.122;19.864;2024-03-08T02:28:14;21.77;;;15.70;;
11141;SDS011;5625;50.122;19.864;2024-03-08T02:30:44;21.03;;;16.30;;
11141;SDS011;5625;50.122;19.864;2024-03-08T02:33:14;20.63;;;14.93;;
11141;SDS011;5625;50.122;19.864;2024-03-08T02:35:44;19.23;;;15.13;;
11141;SDS011;5625;50.122;19.864;2024-03-08T02:38:14;19.20;;;16.00;;
11141;SDS011;5625;50.122;19.864;2024-03-08T02:40:45;19.37;;;16.00;;
11141;SDS011;5625;50.122;19.864;2024-03-08T02:43:14;19.23;;;15.00;;
11141;SDS011;5625;50.122;19.864;2024-03-08T02:45:44;20.23;;;15.50;;
11141;SDS011;5625;50.122;19.864;2024-03-08T02:48:13;18.30;;;14.50;;
11141;SDS011;5625;50.122;19.864;2024-03-08T02:50:42;23.03;;;16.23;;
11141;SDS011;5625;50.122;19.864;2024-03-08T02:53:12;20.93;;;16.10;;
11141;SDS011;5625;50.122;19.864;2024-03-08T02:55:45;18.47;;;15.27;;
11141;SDS011;5625;50.122;19.864;2024-03-08T02:58:14;21.77;;;17.03;;
11141;SDS011;5625;50.122;19.864;2024-03-08T03:00:42;21.30;;;16.33;;
11141;SDS011;5625;50.122;19.864;2024-03-08T03:03:11;17.90;;;15.43;;
11141;SDS011;5625;50.122;19.864;2024-03-08T03:05:39;23.03;;;17.37;;
11141;SDS011;5625;50.122;19.864;2024-03-08T03:08:15;20.17;;;16.90;;
11141;SDS011;5625;50.122;19.864;2024-03-08T03:10:44;23.30;;;17.77;;
11141;SDS011;5625;50.122;19.864;2024-03-08T03:13:12;23.17;;;17.83;;
11141;SDS011;5625;50.122;19.864;2024-03-08T03:15:41;22.87;;;17.10;;
11141;SDS011;5625;50.122;19.864;2024-03-08T03:18:08;22.37;;;16.60;;
11141;SDS011;5625;50.122;19.864;2024-03-08T03:20:38;22.10;;;17.73;;
11141;SDS011;5625;50.122;19.864;2024-03-08T03:23:09;21.10;;;16.50;;
11141;SDS011;5625;50.122;19.864;2024-03-08T03:25:42;21.00;;;17.60;;
11141;SDS011;5625;50.122;19.864;2024-03-08T03:28:12;21.70;;;17.13;;
11141;SDS011;5625;50.122;19.864;2024-03-08T03:30:44;21.77;;;16.97;;
11141;SDS011;5625;50.122;19.864;2024-03-08T03:33:13;23.33;;;17.47;;
11141;SDS011;5625;50.122;19.864;2024-03-08T03:35:43;23.17;;;17.97;;
11141;SDS011;5625;50.122;19.864;2024-03-08T03:38:12;20.13;;;16.83;;
11141;SDS011;5625;50.122;19.864;2024-03-08T03:40:41;24.60;;;17.57;;
11141;SDS011;5625;50.122;19.864;2024-03-08T03:43:12;21.60;;;16.73;;
11141;SDS011;5625;50.122;19.864;2024-03-08T03:45:40;21.13;;;15.73;;
11141;SDS011;5625;50.122;19.864;2024-03-08T03:48:08;20.20;;;16.37;;
11141;SDS011;5625;50.122;19.864;2024-03-08T03:50:38;21.60;;;17.07;;
11141;SDS011;5625;50.122;19.864;2024-03-08T03:53:07;21.70;;;16.63;;
11141;SDS011;5625;50.122;19.864;2024-03-08T03:55:37;20.80;;;16.50;;
11141;SDS011;5625;50.122;19.864;2024-03-08T03:58:08;23.67;;;16.07;;
11141;SDS011;5625;50.122;19.864;2024-03-08T04:00:37;21.17;;;16.73;;
11141;SDS011;5625;50.122;19.864;2024-03-08T04:03:06;21.47;;;16.73;;
11141;SDS011;5625;50.122;19.864;2024-03-08T04:05:35;21.57;;;15.80;;
11141;SDS011;5625;50.122;19.864;2024-03-08T04:08:04;21.57;;;16.57;;
11141;SDS011;5625;50.122;19.864;2024-03-08T04:10:32;22.00;;;17.40;;
11141;SDS011;5625;50.122;19.864;2024-03-08T04:13:00;21.93;;;17.17;;
11141;SDS011;5625;50.122;19.864;2024-03-08T04:15:30;21.13;;;17.73;;
11141;SDS011;5625;50.122;19.864;2024-03-08T04:17:58;19.73;;;16.50;;
11141;SDS011;5625;50.122;19.864;2024-03-08T04:20:28;23.33;;;16.97;;
11141;SDS011;5625;50.122;19.864;2024-03-08T04:22:56;22.73;;;17.30;;
11141;SDS011;5625;50.122;19.864;2024-03-08T04:25:25;22.17;;;17.87;;
11141;SDS011;5625;50.122;19.864;2024-03-08T04:27:53;22.63;;;17.77;;
11141;SDS011;5625;50.122;19.864;2024-03-08T04:30:21;22.00;;;17.57;;
11141;SDS011;5625;50.122;19.864;2024-03-08T04:32:51;24.87;;;17.27;;
11141;SDS011;5625;50.122;19.864;2024-03-08T04:35:20;26.03;;;18.33;;
11141;SDS011;5625;50.122;19.864;2024-03-08T04:37:48;22.50;;;17.30;;
11141;SDS011;5625;50.122;19.864;2024-03-08T04:40:16;22.30;;;18.23;;
11141;SDS011;5625;50.122;19.864;2024-03-08T04:42:45;25.67;;;17.87;;
11141;SDS011;5625;50.122;19.864;2024-03-08T04:45:17;26.30;;;17.93;;
11141;SDS011;5625;50.122;19.864;2024-03-08T04:47:45;27.97;;;17.57;;
11141;SDS011;5625;50.122;19.864;2024-03-08T04:50:15;25.93;;;18.83;;
11141;SDS011;5625;50.122;19.864;2024-03-08T04:52:43;21.90;;;17.07;;
11141;SDS011;5625;50.122;19.864;2024-03-08T04:55:12;22.87;;;17.33;;
11141;SDS011;5625;50.122;19.864;2024-03-08T04:57:42;23.23;;;18.07;;
11141;SDS011;5625;50.122;19.864;2024-03-08T05:00:10;22.70;;;17.90;;
11141;SDS011;5625;50.122;19.864;2024-03-08T05:02:39;23.73;;;18.13;;
11141;SDS011;5625;50.122;19.864;2024-03-08T05:05:08;24.07;;;18.03;;
11141;SDS011;5625;50.122;19.864;2024-03-08T05:07:39;21.07;;;17.77;;
11141;SDS011;5625;50.122;19.864;2024-03-08T05:10:07;24.37;;;17.30;;
11141;SDS011;5625;50.122;19.864;2024-03-08T05:12:36;22.83;;;18.13;;
11141;SDS011;5625;50.122;19.864;2024-03-08T05:15:05;21.87;;;17.50;;
11141;SDS011;5625;50.122;19.864;2024-03-08T05:17:34;22.77;;;17.43;;
11141;SDS011;5625;50.122;19.864;2024-03-08T05:20:03;22.27;;;17.40;;
11141;SDS011;5625;50.122;19.864;2024-03-08T05:22:34;22.27;;;17.70;;
11141;SDS011;5625;50.122;19.864;2024-03-08T05:25:04;23.70;;;17.83;;
11141;SDS011;5625;50.122;19.864;2024-03-08T05:27:35;23.90;;;18.27;;
11141;SDS011;5625;50.122;19.864;2024-03-08T05:30:04;22.93;;;17.87;;
11141;SDS011;5625;50.122;19.864;2024-03-08T05:32:34;24.00;;;17.83;;
11141;SDS011;5625;50.122;19.864;2024-03-08T05:35:02;25.33;;;17.67;;
11141;SDS011;5625;50.122;19.864;2024-03-08T05:37:33;24.40;;;18.97;;
11141;SDS011;5625;50.122;19.864;2024-03-08T05:40:01;22.27;;;17.73;;
11141;SDS011;5625;50.122;19.864;2024-03-08T05:42:42;23.40;;;18.87;;
11141;SDS011;5625;50.122;19.864;2024-03-08T05:45:10;24.13;;;19.07;;
11141;SDS011;5625;50.122;19.864;2024-03-08T05:47:38;23.27;;;17.50;;
11141;SDS011;5625;50.122;19.864;2024-03-08T05:50:07;24.07;;;19.23;;
11141;SDS011;5625;50.122;19.864;2024-03-08T05:52:37;24.13;;;18.47;;
11141;SDS011;5625;50.122;19.864;2024-03-08T05:55:07;23.77;;;18.27;;
11141;SDS011;5625;50.122;19.864;2024-03-08T05:57:36;23.10;;;18.33;;
11141;SDS011;5625;50.122;19.864;2024-03-08T06:00:07;23.80;;;18.30;;
11141;SDS011;5625;50.122;19.864;2024-03-08T06:02:37;26.10;;;19.30;;
11141;SDS011;5625;50.122;19.864;2024-03-08T06:05:08;25.30;;;19.70;;
11141;SDS011;5625;50.122;19.864;2024-03-08T06:07:38;24.50;;;19.10;;
11141;SDS011;5625;50.122;19.864;2024-03-08T06:10:11;24.57;;;19.23;;
11141;SDS011;5625;50.122;19.864;2024-03-08T06:12:39;26.47;;;19.67;;
11141;SDS011;5625;50.122;19.864;2024-03-08T06:15:09;27.53;;;18.40;;
11141;SDS011;5625;50.122;19.864;2024-03-08T06:17:41;27.10;;;19.43;;
11141;SDS011;5625;50.122;19.864;2024-03-08T06:20:10;25.23;;;19.57;;
11141;SDS011;5625;50.122;19.864;2024-03-08T06:22:40;24.93;;;19.17;;
11141;SDS011;5625;50.122;19.864;2024-03-08T06:25:08;26.53;;;19.43;;
11141;SDS011;5625;50.122;19.864;2024-03-08T06:27:40;25.67;;;19.37;;
11141;SDS011;5625;50.122;19.864;2024-03-08T06:30:09;25.57;;;19.77;;
11141;SDS011;5625;50.122;19.864;2024-03-08T06:32:38;25.90;;;20.13;;
11141;SDS011;5625;50.122;19.864;2024-03-08T06:35:09;25.33;;;19.87;;
11141;SDS011;5625;50.122;19.864;2024-03-08T06:37:37;25.27;;;20.10;;
11141;SDS011;5625;50.122;19.864;2024-03-08T06:40:06;26.73;;;19.93;;
11141;SDS011;5625;50.122;19.864;2024-03-08T06:42:41;27.10;;;20.27;;
11141;SDS011;5625;50.122;19.864;2024-03-08T06:45:09;28.60;;;20.03;;
11141;SDS011;5625;50.122;19.864;2024-03-08T06:47:39;25.97;;;19.73;;
11141;SDS011;5625;50.122;19.864;2024-03-08T06:50:08;26.77;;;20.63;;
11141;SDS011;5625;50.122;19.864;2024-03-08T06:52:41;25.37;;;18.27;;
11141;SDS011;5625;50.122;19.864;2024-03-08T06:55:10;27.10;;;19.30;;
11141;SDS011;5625;50.122;19.864;2024-03-08T06:57:39;27.03;;;19.87;;
11141;SDS011;5625;50.122;19.864;2024-03-08T07:00:09;25.07;;;18.83;;
11141;SDS011;5625;50.122;19.864;2024-03-08T07:02:45;34.43;;;20.60;;
11141;SDS011;5625;50.122;19.864;2024-03-08T07:05:15;25.70;;;20.20;;
11141;SDS011;5625;50.122;19.864;2024-03-08T07:07:43;28.20;;;21.07;;
11141;SDS011;5625;50.122;19.864;2024-03-08T07:10:11;26.83;;;19.70;;
11141;SDS011;5625;50.122;19.864;2024-03-08T07:12:42;26.97;;;20.10;;
11141;SDS011;5625;50.122;19.864;2024-03-08T07:15:12;28.00;;;19.43;;
11141;SDS011;5625;50.122;19.864;2024-03-08T07:17:41;25.13;;;18.80;;
11141;SDS011;5625;50.122;19.864;2024-03-08T07:20:11;30.10;;;20.23;;
11141;SDS011;5625;50.122;19.864;2024-03-08T07:22:40;31.00;;;19.30;;
11141;SDS011;5625;50.122;19.864;2024-03-08T07:25:12;27.73;;;19.93;;
11141;SDS011;5625;50.122;19.864;2024-03-08T07:27:50;27.77;;;18.97;;
11141;SDS011;5625;50.122;19.864;2024-03-08T07:30:21;28.00;;;19.30;;
11141;SDS011;5625;50.122;19.864;2024-03-08T07:33:09;32.40;;;21.23;;
11141;SDS011;5625;50.122;19.864;2024-03-08T07:35:40;30.50;;;20.67;;
11141;SDS011;5625;50.122;19.864;2024-03-08T07:38:10;27.90;;;20.67;;
11141;SDS011;5625;50.122;19.864;2024-03-08T07:40:39;28.17;;;20.63;;
11141;SDS011;5625;50.122;19.864;2024-03-08T07:43:11;28.70;;;21.03;;
11141;SDS011;5625;50.122;19.864;2024-03-08T07:45:40;29.83;;;20.70;;
11141;SDS011;5625;50.122;19.864;2024-03-08T07:48:09;29.03;;;20.90;;
11141;SDS011;5625;50.122;19.864;2024-03-08T07:50:38;27.30;;;20.93;;
11141;SDS011;5625;50.122;19.864;2024-03-08T07:53:06;28.33;;;20.27;;
11141;SDS011;5625;50.122;19.864;2024-03-08T07:55:36;27.77;;;20.50;;
11141;SDS011;5625;50.122;19.864;2024-03-08T07:58:06;28.23;;;20.70;;
11141;SDS011;5625;50.122;19.864;2024-03-08T08:00:37;27.53;;;20.20;;
11141;SDS011;5625;50.122;19.864;2024-03-08T08:03:06;26.83;;;20.10;;
11141;SDS011;5625;50.122;19.864;2024-03-08T08:05:35;30.57;;;21.70;;
11141;SDS011;5625;50.122;19.864;2024-03-08T08:08:05;31.87;;;21.90;;
11141;SDS011;5625;50.122;19.864;2024-03-08T08:10:37;31.60;;;22.70;;
11141;SDS011;5625;50.122;19.864;2024-03-08T08:13:06;31.13;;;22.47;;
11141;SDS011;5625;50.122;19.864;2024-03-08T08:15:34;35.77;;;22.10;;
11141;SDS011;5625;50.122;19.864;2024-03-08T08:18:02;32.33;;;22.17;;
11141;SDS011;5625;50.122;19.864;2024-03-08T08:20:35;34.57;;;24.27;;
11141;SDS011;5625;50.122;19.864;2024-03-08T08:23:05;36.50;;;24.67;;
11141;SDS011;5625;50.122;19.864;2024-03-08T08:25:33;37.37;;;25.57;;
11141;SDS011;5625;50.122;19.864;2024-03-08T08:28:01;34.33;;;24.80;;
11141;SDS011;5625;50.122;19.864;2024-03-08T08:30:31;38.10;;;26.60;;
11141;SDS011;5625;50.122;19.864;2024-03-08T08:33:00;37.73;;;26.10;;
11141;SDS011;5625;50.122;19.864;2024-03-08T08:35:29;38.63;;;26.23;;
11141;SDS011;5625;50.122;19.864;2024-03-08T08:37:58;36.97;;;26.17;;
11141;SDS011;5625;50.122;19.864;2024-03-08T08:40:27;37.30;;;25.63;;
11141;SDS011;5625;50.122;19.864;2024-03-08T08:42:57;38.07;;;26.43;;
11141;SDS011;5625;50.122;19.864;2024-03-08T08:45:26;37.30;;;27.27;;
11141;SDS011;5625;50.122;19.864;2024-03-08T08:47:54;40.57;;;28.10;;
11141;SDS011;5625;50.122;19.864;2024-03-08T08:50:23;37.67;;;27.13;;
11141;SDS011;5625;50.122;19.864;2024-03-08T08:52:52;38.47;;;27.97;;
11141;SDS011;5625;50.122;19.864;2024-03-08T08:55:22;38.80;;;27.77;;
11141;SDS011;5625;50.122;19.864;2024-03-08T08:57:52;39.27;;;27.87;;
11141;SDS011;5625;50.122;19.864;2024-03-08T09:00:22;38.43;;;27.83;;
11141;SDS011;5625;50.122;19.864;2024-03-08T09:02:54;41.07;;;27.57;;
11141;SDS011;5625;50.122;19.864;2024-03-08T09:05:25;37.27;;;27.57;;
11141;SDS011;5625;50.122;19.864;2024-03-08T09:07:53;41.17;;;27.67;;
11141;SDS011;5625;50.122;19.864;2024-03-08T09:10:25;38.53;;;26.97;;
11141;SDS011;5625;50.122;19.864;2024-03-08T09:12:56;35.83;;;25.73;;
11141;SDS011;5625;50.122;19.864;2024-03-08T09:15:26;37.07;;;25.40;;
11141;SDS011;5625;50.122;19.864;2024-03-08T09:17:55;38.87;;;26.63;;
11141;SDS011;5625;50.122;19.864;2024-03-08T09:20:23;36.47;;;25.63;;
11141;SDS011;5625;50.122;19.864;2024-03-08T09:22:51;37.67;;;25.17;;
11141;SDS011;5625;50.122;19.864;2024-03-08T09:25:21;36.43;;;24.67;;
11141;SDS011;5625;50.122;19.864;2024-03-08T09:27:51;29.00;;;22.00;;
11141;SDS011;5625;50.122;19.864;2024-03-08T09:30:21;31.47;;;21.87;;
11141;SDS011;5625;50.122;19.864;2024-03-08T09:32:50;31.70;;;23.13;;
11141;SDS011;5625;50.122;19.864;2024-03-08T09:35:19;29.10;;;22.37;;
11141;SDS011;5625;50.122;19.864;2024-03-08T09:37:48;28.97;;;19.90;;
11141;SDS011;5625;50.122;19.864;2024-03-08T09:40:18;28.20;;;19.97;;
11141;SDS011;5625;50.122;19.864;2024-03-08T09:42:48;27.73;;;21.77;;
11141;SDS011;5625;50.122;19.864;2024-03-08T09:45:19;29.03;;;22.33;;
11141;SDS011;5625;50.122;19.864;2024-03-08T09:47:52;26.47;;;21.00;;
11141;SDS011;5625;50.122;19.864;2024-03-08T09:50:21;25.07;;;19.27;;
11141;SDS011;5625;50.122;19.864;2024-03-08T09:52:50;24.80;;;18.97;;
11141;SDS011;5625;50.122;19.864;2024-03-08T09:55:18;25.57;;;18.23;;
11141;SDS011;5625;50.122;19.864;2024-03-08T09:57:49;22.80;;;17.73;;
11141;SDS011;5625;50.122;19.864;2024-03-08T10:00:39;22.17;;;17.97;;
11141;SDS011;5625;50.122;19.864;2024-03-08T10:03:08;24.30;;;18.57;;
11141;SDS011;5625;50.122;19.864;2024-03-08T10:05:40;22.27;;;17.63;;
11141;SDS011;5625;50.122;19.864;2024-03-08T10:08:10;22.20;;;17.47;;
11141;SDS011;5625;50.122;19.864;2024-03-08T10:10:39;25.13;;;17.83;;
11141;SDS011;5625;50.122;19.864;2024-03-08T10:13:09;21.30;;;17.57;;
11141;SDS011;5625;50.122;19.864;2024-03-08T10:15:40;28.63;;;17.03;;
11141;SDS011;5625;50.122;19.864;2024-03-08T10:18:08;24.03;;;18.03;;
11141;SDS011;5625;50.122;19.864;2024-03-08T10:20:37;22.33;;;18.63;;
11141;SDS011;5625;50.122;19.864;2024-03-08T10:23:05;32.00;;;17.47;;
11141;SDS011;5625;50.122;19.864;2024-03-08T10:25:37;22.83;;;17.27;;
11141;SDS011;5625;50.122;19.864;2024-03-08T10:28:06;22.90;;;17.80;;
11141;SDS011;5625;50.122;19.864;2024-03-08T10:30:34;22.40;;;16.23;;
11141;SDS011;5625;50.122;19.864;2024-03-08T10:33:04;19.57;;;16.20;;
11141;SDS011;5625;50.122;19.864;2024-03-08T10:35:33;22.60;;;16.70;;
11141;SDS011;5625;50.122;19.864;2024-03-08T10:38:01;21.90;;;16.83;;
11141;SDS011;5625;50.122;19.864;2024-03-08T10:40:34;21.53;;;18.03;;
11141;SDS011;5625;50.122;19.864;2024-03-08T10:43:04;21.77;;;16.73;;
11141;SDS011;5625;50.122;19.864;2024-03-08T10:45:35;20.50;;;17.10;;
11141;SDS011;5625;50.122;19.864;2024-03-08T10:48:08;21.50;;;17.00;;
11141;SDS011;5625;50.122;19.864;2024-03-08T10:50:43;25.07;;;19.03;;
11141;SDS011;5625;50.122;19.864;2024-03-08T10:53:13;23.50;;;19.57;;
11141;SDS011;5625;50.122;19.864;2024-03-08T10:55:42;24.57;;;18.27;;
11141;SDS011;5625;50.122;19.864;2024-03-08T10:58:11;22.23;;;18.23;;
11141;SDS011;5625;50.122;19.864;2024-03-08T11:00:40;20.50;;;17.73;;
11141;SDS011;5625;50.122;19.864;2024-03-08T11:03:09;22.30;;;18.63;;
11141;SDS011;5625;50.122;19.864;2024-03-08T11:06:15;22.17;;;18.07;;
11141;SDS011;5625;50.122;19.864;2024-03-08T11:08:45;24.53;;;17.47;;
11141;SDS011;5625;50.122;19.864;2024-03-08T11:11:23;21.13;;;17.10;;
11141;SDS011;5625;50.122;19.864;2024-03-08T11:14:00;21.57;;;16.27;;
11141;SDS011;5625;50.122;19.864;2024-03-08T11:16:38;20.77;;;17.87;;
11141;SDS011;5625;50.122;19.864;2024-03-08T11:19:25;20.43;;;17.10;;
11141;SDS011;5625;50.122;19.864;2024-03-08T11:21:58;20.77;;;17.33;;
11141;SDS011;5625;50.122;19.864;2024-03-08T11:24:27;20.00;;;17.03;;
11141;SDS011;5625;50.122;19.864;2024-03-08T11:27:04;22.70;;;17.37;;
11141;SDS011;5625;50.122;19.864;2024-03-08T11:29:33;21.47;;;16.80;;
11141;SDS011;5625;50.122;19.864;2024-03-08T11:32:10;21.57;;;16.67;;
11141;SDS011;5625;50.122;19.864;2024-03-08T11:34:41;20.87;;;15.73;;
11141;SDS011;5625;50.122;19.864;2024-03-08T11:37:11;18.70;;;16.63;;
11141;SDS011;5625;50.122;19.864;2024-03-08T11:39:40;21.30;;;16.63;;
11141;SDS011;5625;50.122;19.864;2024-03-08T11:42:13;21.97;;;17.13;;
11141;SDS011;5625;50.122;19.864;2024-03-08T11:44:42;23.77;;;17.27;;
11141;SDS011;5625;50.122;19.864;2024-03-08T11:47:10;24.17;;;18.37;;
11141;SDS011;5625;50.122;19.864;2024-03-08T11:49:40;22.87;;;17.50;;
11141;SDS011;5625;50.122;19.864;2024-03-08T11:52:11;23.40;;;19.10;;
11141;SDS011;5625;50.122;19.864;2024-03-08T11:54:40;22.57;;;18.00;;
11141;SDS011;5625;50.122;19.864;2024-03-08T11:57:09;24.10;;;18.87;;
11141;SDS011;5625;50.122;19.864;2024-03-08T11:59:38;23.73;;;19.40;;
11141;SDS011;5625;50.122;19.864;2024-03-08T12:02:07;24.70;;;18.87;;
11141;SDS011;5625;50.122;19.864;2024-03-08T12:04:37;22.80;;;18.23;;
11141;SDS011;5625;50.122;19.864;2024-03-08T12:07:09;25.27;;;18.37;;
11141;SDS011;5625;50.122;19.864;2024-03-08T12:09:38;25.03;;;18.23;;
11141;SDS011;5625;50.122;19.864;2024-03-08T12:12:07;26.20;;;19.40;;
11141;SDS011;5625;50.122;19.864;2024-03-08T12:14:38;23.47;;;18.63;;
11141;SDS011;5625;50.122;19.864;2024-03-08T12:17:07;22.80;;;19.27;;
11141;SDS011;5625;50.122;19.864;2024-03-08T12:19:38;27.00;;;18.50;;
11141;SDS011;5625;50.122;19.864;2024-03-08T12:22:08;21.57;;;18.43;;
11141;SDS011;5625;50.122;19.864;2024-03-08T12:24:37;25.57;;;18.10;;
11141;SDS011;5625;50.122;19.864;2024-03-08T12:29:55;20.70;;;17.10;;
11141;SDS011;5625;50.122;19.864;2024-03-08T12:32:23;24.00;;;17.67;;
11141;SDS011;5625;50.122;19.864;2024-03-08T12:34:51;22.37;;;18.53;;
11141;SDS011;5625;50.122;19.864;2024-03-08T12:37:22;23.90;;;19.20;;
11141;SDS011;5625;50.122;19.864;2024-03-08T12:39:50;22.77;;;18.03;;
11141;SDS011;5625;50.122;19.864;2024-03-08T12:42:22;22.47;;;18.07;;
11141;SDS011;5625;50.122;19.864;2024-03-08T12:44:50;23.77;;;18.87;;
11141;SDS011;5625;50.122;19.864;2024-03-08T12:47:19;23.07;;;19.00;;
11141;SDS011;5625;50.122;19.864;2024-03-08T12:49:47;22.13;;;18.20;;
11141;SDS011;5625;50.122;19.864;2024-03-08T12:52:16;21.67;;;17.90;;
11141;SDS011;5625;50.122;19.864;2024-03-08T12:54:46;23.60;;;19.87;;
11141;SDS011;5625;50.122;19.864;2024-03-08T12:57:15;23.80;;;18.77;;
11141;SDS011;5625;50.122;19.864;2024-03-08T12:59:44;25.27;;;19.63;;
11141;SDS011;5625;50.122;19.864;2024-03-08T13:02:12;24.20;;;19.63;;
11141;SDS011;5625;50.122;19.864;2024-03-08T13:04:40;22.20;;;19.43;;
11141;SDS011;5625;50.122;19.864;2024-03-08T13:07:08;22.13;;;18.90;;
11141;SDS011;5625;50.122;19.864;2024-03-08T13:09:36;20.30;;;17.63;;
11141;SDS011;5625;50.122;19.864;2024-03-08T13:12:06;23.27;;;18.67;;
11141;SDS011;5625;50.122;19.864;2024-03-08T13:14:35;23.03;;;19.33;;
11141;SDS011;5625;50.122;19.864;2024-03-08T13:17:04;23.20;;;18.40;;
11141;SDS011;5625;50.122;19.864;2024-03-08T13:19:37;24.33;;;19.23;;
11141;SDS011;5625;50.122;19.864;2024-03-08T13:22:05;24.83;;;19.83;;
11141;SDS011;5625;50.122;19.864;2024-03-08T13:24:34;23.83;;;19.63;;
11141;SDS011;5625;50.122;19.864;2024-03-08T13:27:02;26.50;;;20.37;;
11141;SDS011;5625;50.122;19.864;2024-03-08T13:29:44;27.97;;;22.17;;
11141;SDS011;5625;50.122;19.864;2024-03-08T13:32:14;39.00;;;25.50;;
11141;SDS011;5625;50.122;19.864;2024-03-08T13:34:43;26.30;;;21.17;;
11141;SDS011;5625;50.122;19.864;2024-03-08T13:37:13;27.33;;;20.80;;
11141;SDS011;5625;50.122;19.864;2024-03-08T13:39:43;27.30;;;21.07;;
11141;SDS011;5625;50.122;19.864;2024-03-08T13:42:11;24.03;;;19.73;;
11141;SDS011;5625;50.122;19.864;2024-03-08T13:44:47;23.90;;;19.77;;
11141;SDS011;5625;50.122;19.864;2024-03-08T13:47:15;23.87;;;18.83;;
11141;SDS011;5625;50.122;19.864;2024-03-08T13:49:43;27.80;;;19.83;;
11141;SDS011;5625;50.122;19.864;2024-03-08T13:52:12;27.13;;;20.53;;
11141;SDS011;5625;50.122;19.864;2024-03-08T13:54:41;26.30;;;20.60;;
11141;SDS011;5625;50.122;19.864;2024-03-08T13:57:09;29.10;;;21.03;;
11141;SDS011;5625;50.122;19.864;2024-03-08T13:59:38;24.83;;;19.90;;
11141;SDS011;5625;50.122;19.864;2024-03-08T14:02:08;24.13;;;20.00;;
11141;SDS011;5625;50.122;19.864;2024-03-08T14:04:39;26.10;;;19.97;;
11141;SDS011;5625;50.122;19.864;2024-03-08T14:07:09;24.87;;;19.33;;
11141;SDS011;5625;50.122;19.864;2024-03-08T14:09:37;24.63;;;19.20;;
11141;SDS011;5625;50.122;19.864;2024-03-08T14:12:09;28.73;;;19.83;;
11141;SDS011;5625;50.122;19.864;2024-03-08T14:14:37;30.90;;;20.53;;
11141;SDS011;5625;50.122;19.864;2024-03-08T14:17:05;28.60;;;20.33;;
11141;SDS011;5625;50.122;19.864;2024-03-08T14:19:36;24.50;;;19.77;;
11141;SDS011;5625;50.122;19.864;2024-03-08T14:22:05;25.50;;;19.43;;
11141;SDS011;5625;50.122;19.864;2024-03-08T14:24:33;25.07;;;20.03;;
11141;SDS011;5625;50.122;19.864;2024-03-08T14:27:01;23.47;;;19.37;;
11141;SDS011;5625;50.122;19.864;2024-03-08T14:29:30;24.67;;;19.50;;
11141;SDS011;5625;50.122;19.864;2024-03-08T14:31:59;25.03;;;19.73;;
11141;SDS011;5625;50.122;19.864;2024-03-08T14:34:30;26.90;;;19.73;;
11141;SDS011;5625;50.122;19.864;2024-03-08T14:37:00;24.33;;;19.47;;
11141;SDS011;5625;50.122;19.864;2024-03-08T14:39:49;27.60;;;19.67;;